createdAt,value
2022-12-28T00:01:28.284Z,91.50
2022-12-28T00:03:55.179Z,91.60
2022-12-28T00:06:24.680Z,91.50
2022-12-28T00:08:56.210Z,91.50
2022-12-28T00:11:28.467Z,91.50
2022-12-28T00:14:00.979Z,91.50
2022-12-28T00:16:33.625Z,91.50
2022-12-28T00:19:22.189Z,91.40
2022-12-28T00:21:48.952Z,91.30
2022-12-28T00:24:21.129Z,91.30
2022-12-28T00:26:48.346Z,91.20
2022-12-28T00:29:15.460Z,91.10
2022-12-28T00:31:42.597Z,91.10
2022-12-28T00:34:09.353Z,91.00
2022-12-28T00:37:09.529Z,91.00
2022-12-28T00:39:25.770Z,90.90
2022-12-28T00:41:52.779Z,90.90
2022-12-28T00:44:19.559Z,90.90
2022-12-28T00:46:46.378Z,90.90
2022-12-28T00:49:13.073Z,90.90
2022-12-28T00:51:39.841Z,90.90
2022-12-28T00:54:06.593Z,90.90
2022-12-28T00:56:33.340Z,90.90
2022-12-28T00:59:05.209Z,90.90
2022-12-28T01:01:32.009Z,91.00
2022-12-28T01:03:59.195Z,91.00
2022-12-28T01:06:26.840Z,91.10
2022-12-28T01:08:54.064Z,91.20
2022-12-28T01:11:26.342Z,91.20
2022-12-28T01:13:54.768Z,91.20
2022-12-28T01:16:24.610Z,91.20
2022-12-28T01:18:54.107Z,91.10
2022-12-28T01:21:23.242Z,91.10
2022-12-28T01:23:53.434Z,91.00
2022-12-28T01:26:20.172Z,90.90
2022-12-28T01:28:46.905Z,90.80
2022-12-28T01:31:16.563Z,90.70
2022-12-28T01:33:43.931Z,90.70
2022-12-28T01:36:18.253Z,90.50
2022-12-28T01:38:45.922Z,90.50
2022-12-28T01:41:15.404Z,90.50
2022-12-28T01:43:44.164Z,90.50
2022-12-28T01:46:17.302Z,90.40
2022-12-28T01:49:01.531Z,90.40
2022-12-28T01:51:31.671Z,90.40
2022-12-28T01:54:00.009Z,90.40
2022-12-28T01:56:27.808Z,90.40
2022-12-28T01:58:55.807Z,90.40
2022-12-28T02:01:22.768Z,90.40
2022-12-28T02:03:49.764Z,90.30
2022-12-28T02:06:16.681Z,90.20
2022-12-28T02:08:55.167Z,90.20
2022-12-28T02:11:21.959Z,90.10
2022-12-28T02:13:51.233Z,90.10
2022-12-28T02:16:18.885Z,90.20
2022-12-28T02:18:47.429Z,90.10
2022-12-28T02:21:48.333Z,90.10
2022-12-28T02:24:26.986Z,90.10
2022-12-28T02:27:06.527Z,90.10
2022-12-28T02:29:36.276Z,90.10
2022-12-28T02:32:21.817Z,90.10
2022-12-28T02:35:00.590Z,90.10
2022-12-28T02:37:52.848Z,90.20
2022-12-28T02:40:27.701Z,90.20
2022-12-28T02:42:55.576Z,90.20
2022-12-28T02:46:01.292Z,90.20
2022-12-28T02:48:56.280Z,90.20
2022-12-28T02:51:42.508Z,90.20
2022-12-28T02:54:38.135Z,90.30
2022-12-28T02:57:42.216Z,90.30
2022-12-28T03:00:20.418Z,90.30
2022-12-28T03:03:02.390Z,90.30
2022-12-28T03:06:42.444Z,90.20
2022-12-28T03:10:00.573Z,90.20
2022-12-28T03:12:33.924Z,90.10
2022-12-28T03:15:15.383Z,90.10
2022-12-28T03:18:02.639Z,90.10
2022-12-28T03:20:50.548Z,90.10
2022-12-28T03:23:40.242Z,90.20
2022-12-28T03:26:29.385Z,90.30
2022-12-28T03:29:15.791Z,90.20
2022-12-28T03:31:42.931Z,90.30
2022-12-28T03:34:10.692Z,90.40
2022-12-28T03:36:42.779Z,90.40
2022-12-28T03:39:42.545Z,90.40
2022-12-28T03:42:49.047Z,90.40
2022-12-28T03:45:44.844Z,90.30
2022-12-28T03:48:14.949Z,90.40
2022-12-28T03:50:44.716Z,90.40
2022-12-28T03:53:11.553Z,90.50
2022-12-28T03:55:38.568Z,90.50
2022-12-28T03:58:06.228Z,90.60
2022-12-28T04:00:33.164Z,90.70
2022-12-28T04:02:59.945Z,90.80
2022-12-28T04:05:26.880Z,91.00
2022-12-28T04:07:53.928Z,91.20
2022-12-28T04:10:20.695Z,91.30
2022-12-28T04:12:47.494Z,91.40
2022-12-28T04:15:14.290Z,91.70
2022-12-28T04:17:41.031Z,91.90
2022-12-28T04:20:08.370Z,92.00
2022-12-28T04:22:35.145Z,92.10
2022-12-28T04:25:01.970Z,92.30
2022-12-28T04:27:28.784Z,92.40
2022-12-28T04:29:55.524Z,92.50
2022-12-28T04:32:22.296Z,92.70
2022-12-28T04:34:49.262Z,92.70
2022-12-28T04:37:16.242Z,92.80
2022-12-28T04:39:55.477Z,92.90
2022-12-28T04:42:27.486Z,93.10
2022-12-28T04:44:54.272Z,93.10
2022-12-28T04:47:21.074Z,93.20
2022-12-28T04:49:47.882Z,93.20
2022-12-28T04:52:14.831Z,93.50
2022-12-28T04:54:41.610Z,93.50
2022-12-28T04:57:08.428Z,93.60
2022-12-28T04:59:35.241Z,93.80
2022-12-28T05:02:02.131Z,93.80
2022-12-28T05:04:29.038Z,93.90
2022-12-28T05:06:55.801Z,93.90
2022-12-28T05:09:22.624Z,93.90
2022-12-28T05:11:50.097Z,94.00
2022-12-28T05:14:16.879Z,94.00
2022-12-28T05:16:43.694Z,94.00
2022-12-28T05:19:10.421Z,94.00
2022-12-28T05:21:37.206Z,94.00
2022-12-28T05:24:04.143Z,94.10
2022-12-28T05:26:30.946Z,94.20
2022-12-28T05:28:58.951Z,94.20
2022-12-28T05:31:26.486Z,94.20
2022-12-28T05:33:54.258Z,94.10
2022-12-28T05:36:24.080Z,94.00
2022-12-28T05:38:51.770Z,94.10
2022-12-28T05:41:24.454Z,94.10
2022-12-28T05:43:51.803Z,94.10
2022-12-28T05:46:21.940Z,94.00
2022-12-28T05:48:49.055Z,93.90
2022-12-28T05:51:18.746Z,93.80
2022-12-28T05:53:46.087Z,93.70
2022-12-28T05:56:32.443Z,93.80
2022-12-28T05:59:07.596Z,93.80
2022-12-28T06:01:40.182Z,94.00
2022-12-28T06:04:20.432Z,94.00
2022-12-28T06:06:48.301Z,94.20
2022-12-28T06:09:15.654Z,94.30
2022-12-28T06:11:42.710Z,94.40
2022-12-28T06:14:09.670Z,94.50
2022-12-28T06:16:41.901Z,94.70
2022-12-28T06:19:10.961Z,94.90
2022-12-28T06:21:39.605Z,95.20
2022-12-28T06:24:08.908Z,95.30
2022-12-28T06:26:37.749Z,95.60
2022-12-28T06:29:05.404Z,95.90
2022-12-28T06:31:34.750Z,96.10
2022-12-28T06:34:03.095Z,96.40
2022-12-28T06:36:31.316Z,96.80
2022-12-28T06:38:59.860Z,97.30
2022-12-28T06:41:27.867Z,97.70
2022-12-28T06:43:55.037Z,98.20
2022-12-28T06:46:23.570Z,98.50
2022-12-28T06:48:51.142Z,98.80
2022-12-28T06:51:24.701Z,99.30
2022-12-28T06:53:52.996Z,99.90
2022-12-28T06:56:29.149Z,99.90
2022-12-28T06:59:02.462Z,99.90
2022-12-28T07:01:31.615Z,99.90
2022-12-28T07:04:02.210Z,99.90
2022-12-28T07:06:30.638Z,99.90
2022-12-28T07:09:06.905Z,99.90
2022-12-28T07:11:33.782Z,99.90
2022-12-28T07:14:00.724Z,99.90
2022-12-28T07:18:55.330Z,99.90
2022-12-28T07:21:32.459Z,99.90
2022-12-28T07:23:59.657Z,99.90
2022-12-28T07:26:29.329Z,99.90
2022-12-28T07:28:58.234Z,99.90
2022-12-28T07:31:27.666Z,99.90
2022-12-28T07:33:56.178Z,99.90
2022-12-28T07:36:24.398Z,99.90
2022-12-28T07:38:51.281Z,99.90
2022-12-28T07:41:27.984Z,99.90
2022-12-28T07:43:55.326Z,99.90
2022-12-28T07:46:24.511Z,99.90
2022-12-28T07:48:52.640Z,99.90
2022-12-28T07:51:22.203Z,99.90
2022-12-28T07:53:50.498Z,99.90
2022-12-28T07:56:18.565Z,99.90
2022-12-28T08:01:18.062Z,99.90
2022-12-28T08:03:45.415Z,99.90
2022-12-28T08:06:20.431Z,99.90
2022-12-28T08:08:48.891Z,99.90
2022-12-28T08:11:19.475Z,99.90
2022-12-28T08:13:47.719Z,99.90
2022-12-28T08:16:16.583Z,99.90
2022-12-28T08:18:43.435Z,99.90
2022-12-28T08:21:16.180Z,99.90
2022-12-28T08:23:43.102Z,99.90
2022-12-28T08:26:16.253Z,99.90
2022-12-28T08:28:45.375Z,99.90
2022-12-28T08:31:15.102Z,99.90
2022-12-28T08:33:42.166Z,99.90
2022-12-28T08:36:10.253Z,99.90
2022-12-28T08:38:38.510Z,99.90
2022-12-28T08:41:07.878Z,99.90
2022-12-28T08:43:35.316Z,99.90
2022-12-28T08:46:04.074Z,99.90
2022-12-28T08:48:33.792Z,99.90
2022-12-28T08:51:12.957Z,99.90
2022-12-28T08:53:40.674Z,99.90
2022-12-28T08:56:16.577Z,99.90
2022-12-28T08:58:44.561Z,99.90
2022-12-28T09:01:34.519Z,99.90
2022-12-28T09:04:04.956Z,99.90
2022-12-28T09:06:34.524Z,99.90
2022-12-28T09:09:06.116Z,99.90
2022-12-28T09:11:37.802Z,99.90
2022-12-28T09:14:06.836Z,99.90
2022-12-28T09:16:33.914Z,99.90
2022-12-28T09:19:02.902Z,99.90
2022-12-28T09:21:32.223Z,99.90
2022-12-28T09:23:59.072Z,99.90
2022-12-28T09:26:28.636Z,99.90
2022-12-28T09:28:58.042Z,99.90
2022-12-28T09:31:27.601Z,99.90
2022-12-28T09:36:47.871Z,99.90
2022-12-28T09:39:19.198Z,99.90
2022-12-28T09:41:49.383Z,99.90
2022-12-28T09:44:19.374Z,99.90
2022-12-28T09:47:00.025Z,99.90
2022-12-28T09:49:40.599Z,99.90
2022-12-28T09:52:16.635Z,99.90
2022-12-28T09:54:43.404Z,99.90
2022-12-28T09:57:16.463Z,99.90
2022-12-28T09:59:44.224Z,99.90
2022-12-28T10:02:29.786Z,99.90
2022-12-28T10:04:56.765Z,99.90
2022-12-28T10:07:23.716Z,99.90
2022-12-28T10:09:52.083Z,99.90
2022-12-28T10:12:22.932Z,99.90
2022-12-28T10:14:50.056Z,99.90
2022-12-28T10:17:20.007Z,99.90
2022-12-28T10:19:47.709Z,99.90
2022-12-28T10:22:19.122Z,99.90
2022-12-28T10:24:47.232Z,99.90
2022-12-28T10:27:22.936Z,99.90
2022-12-28T10:29:52.568Z,99.90
2022-12-28T10:32:19.911Z,99.90
2022-12-28T10:34:59.506Z,99.90
2022-12-28T10:37:30.814Z,99.90
2022-12-28T10:40:00.830Z,99.90
2022-12-28T10:42:29.952Z,99.90
2022-12-28T10:45:06.480Z,99.90
2022-12-28T10:47:36.799Z,99.90
2022-12-28T10:52:58.622Z,99.90
2022-12-28T10:55:33.853Z,99.90
2022-12-28T10:58:30.744Z,99.90
2022-12-28T11:01:13.409Z,99.90
2022-12-28T11:04:02.620Z,99.90
2022-12-28T11:06:51.781Z,99.90
2022-12-28T11:09:21.420Z,99.90
2022-12-28T11:11:50.511Z,99.90
2022-12-28T11:14:35.119Z,99.90
2022-12-28T11:17:29.378Z,99.90
2022-12-28T11:20:18.297Z,99.90
2022-12-28T11:22:46.605Z,99.90
2022-12-28T11:25:18.645Z,99.90
2022-12-28T11:27:49.753Z,99.90
2022-12-28T11:30:18.923Z,99.90
2022-12-28T11:33:04.912Z,99.90
2022-12-28T11:35:36.174Z,99.90
2022-12-28T11:38:05.566Z,99.80
2022-12-28T11:40:44.677Z,99.70
2022-12-28T11:43:26.648Z,99.80
2022-12-28T11:45:56.832Z,99.50
2022-12-28T11:48:42.013Z,99.20
2022-12-28T11:51:22.520Z,98.90
2022-12-28T11:53:55.355Z,98.60
2022-12-28T11:56:24.313Z,98.60
2022-12-28T11:59:00.221Z,98.40
2022-12-28T12:01:30.116Z,98.30
2022-12-28T12:03:57.021Z,98.00
2022-12-28T12:06:45.188Z,97.90
2022-12-28T12:09:21.101Z,97.80
2022-12-28T12:12:03.829Z,97.70
2022-12-28T12:14:32.073Z,97.70
2022-12-28T12:17:22.250Z,97.60
2022-12-28T12:19:54.121Z,97.50
2022-12-28T12:22:26.535Z,97.40
2022-12-28T12:25:24.661Z,97.20
2022-12-28T12:27:59.430Z,97.20
2022-12-28T12:30:28.613Z,97.10
2022-12-28T12:33:07.346Z,97.20
2022-12-28T12:35:46.489Z,97.40
2022-12-28T12:38:44.226Z,97.70
2022-12-28T12:41:22.858Z,98.30
2022-12-28T12:44:18.085Z,98.70
2022-12-28T12:47:11.862Z,99.20
2022-12-28T12:49:38.596Z,99.70
2022-12-28T12:52:29.982Z,99.90
2022-12-28T12:55:11.243Z,99.90
2022-12-28T12:58:00.422Z,99.90
2022-12-28T13:00:47.044Z,99.90
2022-12-28T13:03:31.252Z,99.90
2022-12-28T13:05:58.787Z,99.90
2022-12-28T13:08:37.996Z,99.90
2022-12-28T13:11:09.245Z,99.90
2022-12-28T13:13:39.475Z,99.90
2022-12-28T13:16:14.696Z,99.90
2022-12-28T13:19:00.246Z,99.90
2022-12-28T13:21:40.102Z,99.90
2022-12-28T13:24:24.809Z,99.90
2022-12-28T13:26:52.351Z,99.90
2022-12-28T13:29:22.148Z,99.90
2022-12-28T13:31:50.012Z,99.90
2022-12-28T13:34:22.500Z,99.90
2022-12-28T13:36:58.163Z,99.90
2022-12-28T13:39:39.805Z,99.90
2022-12-28T13:42:18.795Z,99.90
2022-12-28T13:44:59.153Z,99.90
2022-12-28T13:47:33.867Z,99.90
2022-12-28T13:50:12.425Z,99.90
2022-12-28T13:52:43.173Z,99.90
2022-12-28T13:55:35.853Z,99.90
2022-12-28T13:58:07.316Z,99.90
2022-12-28T14:00:36.698Z,99.90
2022-12-28T14:03:09.334Z,99.90
2022-12-28T14:05:36.344Z,99.90
2022-12-28T14:08:06.197Z,99.90
2022-12-28T14:10:33.368Z,99.90
2022-12-28T14:13:01.553Z,99.90
2022-12-28T14:15:28.629Z,99.90
2022-12-28T14:17:56.109Z,99.90
2022-12-28T14:20:22.992Z,99.90
2022-12-28T14:22:49.858Z,99.90
2022-12-28T14:25:19.454Z,99.90
2022-12-28T14:28:03.762Z,99.90
2022-12-28T14:30:36.442Z,99.90
2022-12-28T14:33:11.626Z,99.90
2022-12-28T14:35:49.111Z,99.90
2022-12-28T14:38:22.723Z,99.90
2022-12-28T14:40:57.397Z,99.90
2022-12-28T14:43:30.586Z,99.90
2022-12-28T14:46:08.032Z,99.90
2022-12-28T14:51:31.836Z,99.90
2022-12-28T14:54:18.600Z,99.90
2022-12-28T14:57:07.839Z,99.90
2022-12-28T14:59:40.302Z,99.90
2022-12-28T15:00:16.329Z,99.90
2022-12-28T15:02:27.403Z,99.90
2022-12-28T15:04:58.892Z,99.90
2022-12-28T15:07:27.740Z,99.90
2022-12-28T15:09:54.541Z,99.90
2022-12-28T15:12:21.949Z,99.90
2022-12-28T15:14:49.866Z,99.90
2022-12-28T15:17:17.314Z,99.90
2022-12-28T15:19:45.221Z,99.90
2022-12-28T15:22:12.556Z,99.90
2022-12-28T15:24:41.563Z,99.90
2022-12-28T15:27:08.554Z,99.90
2022-12-28T15:32:22.291Z,99.90
2022-12-28T15:34:49.064Z,99.90
2022-12-28T15:37:15.914Z,99.90
2022-12-28T15:39:42.694Z,99.90
2022-12-28T15:42:09.498Z,99.90
2022-12-28T15:44:36.362Z,99.90
2022-12-28T15:47:03.167Z,99.90
2022-12-28T15:49:29.987Z,99.90
2022-12-28T15:51:56.788Z,99.90
2022-12-28T15:54:23.611Z,99.90
2022-12-28T15:56:55.039Z,99.90
2022-12-28T15:59:21.934Z,99.90
2022-12-28T16:01:48.891Z,99.90
2022-12-28T16:04:15.999Z,99.90
2022-12-28T16:06:44.968Z,99.90
2022-12-28T16:09:13.799Z,99.90
2022-12-28T16:11:41.618Z,99.90
2022-12-28T16:14:13.118Z,99.90
2022-12-28T16:16:40.708Z,99.90
2022-12-28T16:19:09.025Z,99.90
2022-12-28T16:21:36.301Z,99.90
2022-12-28T16:24:03.247Z,99.90
2022-12-28T16:26:30.079Z,99.90
2022-12-28T16:28:59.833Z,99.90
2022-12-28T16:31:31.809Z,99.90
2022-12-28T16:34:01.257Z,99.90
2022-12-28T16:36:28.218Z,99.90
2022-12-28T16:38:55.500Z,99.90
2022-12-28T16:41:22.934Z,99.90
2022-12-28T16:43:50.480Z,99.90
2022-12-28T16:46:17.906Z,99.90
2022-12-28T16:48:44.883Z,99.90
2022-12-28T16:51:12.409Z,99.90
2022-12-28T16:53:39.718Z,99.90
2022-12-28T16:56:07.175Z,99.90
2022-12-28T16:58:34.324Z,99.90
2022-12-28T17:01:07.889Z,99.90
2022-12-28T17:03:36.041Z,99.90
2022-12-28T17:06:03.507Z,99.90
2022-12-28T17:08:30.929Z,99.90
2022-12-28T17:10:57.927Z,99.90
2022-12-28T17:13:24.713Z,99.90
2022-12-28T17:15:51.692Z,99.90
2022-12-28T17:18:18.594Z,99.90
2022-12-28T17:20:46.054Z,99.90
2022-12-28T17:23:13.302Z,99.90
2022-12-28T17:25:40.252Z,99.90
2022-12-28T17:28:07.175Z,99.90
2022-12-28T17:30:34.656Z,99.90
2022-12-28T17:33:01.485Z,99.90
2022-12-28T17:35:28.320Z,99.90
2022-12-28T17:37:55.112Z,99.90
2022-12-28T17:40:22.121Z,99.90
2022-12-28T17:42:48.931Z,99.90
2022-12-28T17:45:15.791Z,99.90
2022-12-28T17:47:42.615Z,99.90
2022-12-28T17:50:09.609Z,99.90
2022-12-28T17:52:36.443Z,99.90
2022-12-28T17:55:03.781Z,99.90
2022-12-28T17:57:35.306Z,99.90
2022-12-28T18:00:04.432Z,99.90
2022-12-28T18:02:31.490Z,99.90
2022-12-28T18:04:58.377Z,99.90
2022-12-28T18:07:25.166Z,99.90
2022-12-28T18:09:51.898Z,99.90
2022-12-28T18:12:18.831Z,99.90
2022-12-28T18:14:45.603Z,99.90
2022-12-28T18:17:12.410Z,99.90
2022-12-28T18:19:39.251Z,99.90
2022-12-28T18:22:06.107Z,99.90
2022-12-28T18:24:32.933Z,99.90
2022-12-28T18:26:59.727Z,99.90
2022-12-28T18:29:26.567Z,99.90
2022-12-28T18:31:53.447Z,99.90
2022-12-28T18:34:20.197Z,99.70
2022-12-28T18:36:46.987Z,98.60
2022-12-28T18:39:14.584Z,98.10
2022-12-28T18:41:41.439Z,97.80
2022-12-28T18:44:08.316Z,97.60
2022-12-28T18:46:35.197Z,97.00
2022-12-28T18:49:02.784Z,97.10
2022-12-28T18:51:29.611Z,96.90
2022-12-28T18:53:56.469Z,96.50
2022-12-28T18:56:23.264Z,96.20
2022-12-28T18:58:55.601Z,95.90
2022-12-28T19:02:04.513Z,95.50
2022-12-28T19:04:12.611Z,95.30
2022-12-28T19:06:39.914Z,95.30
2022-12-28T19:09:08.347Z,95.10
2022-12-28T19:11:36.560Z,94.50
2022-12-28T19:14:04.620Z,94.40
2022-12-28T19:16:32.339Z,94.40
2022-12-28T19:19:02.438Z,93.80
2022-12-28T19:21:42.500Z,93.80
2022-12-28T19:24:15.232Z,93.90
2022-12-28T19:26:42.910Z,93.80
2022-12-28T19:29:15.446Z,93.70
2022-12-28T19:31:42.511Z,93.60
2022-12-28T19:34:09.390Z,93.50
2022-12-28T19:36:36.326Z,93.40
2022-12-28T19:39:03.313Z,93.30
2022-12-28T19:41:30.278Z,93.40
2022-12-28T19:43:57.385Z,93.30
2022-12-28T19:46:31.144Z,93.30
2022-12-28T19:48:59.658Z,93.20
2022-12-28T19:51:31.187Z,93.10
2022-12-28T19:53:58.739Z,93.20
2022-12-28T19:56:25.756Z,93.30
2022-12-28T19:58:56.488Z,93.30
2022-12-28T20:01:28.246Z,93.30
2022-12-28T20:03:55.904Z,93.40
2022-12-28T20:06:28.543Z,93.40
2022-12-28T20:08:56.481Z,93.60
2022-12-28T20:11:23.991Z,93.70
2022-12-28T20:13:57.576Z,93.60
2022-12-28T20:16:25.745Z,93.60
2022-12-28T20:18:54.329Z,93.50
2022-12-28T20:21:23.131Z,93.60
2022-12-28T20:23:51.349Z,93.60
2022-12-28T20:26:19.432Z,93.70
2022-12-28T20:28:48.288Z,93.60
2022-12-28T20:31:15.621Z,93.60
2022-12-28T20:33:43.622Z,93.50
2022-12-28T20:36:16.243Z,93.50
2022-12-28T20:38:43.060Z,93.50
2022-12-28T20:41:37.533Z,93.50
2022-12-28T20:44:08.162Z,93.50
2022-12-28T20:46:35.749Z,93.60
2022-12-28T20:49:03.507Z,93.60
2022-12-28T20:51:30.643Z,93.70
2022-12-28T20:53:57.435Z,93.80
2022-12-28T20:56:24.300Z,93.80
2022-12-28T20:58:51.184Z,94.00
2022-12-28T21:01:18.401Z,94.00
2022-12-28T21:03:45.904Z,93.80
2022-12-28T21:06:13.005Z,93.80
2022-12-28T21:08:40.045Z,93.60
2022-12-28T21:11:07.141Z,93.70
2022-12-28T21:13:35.287Z,93.60
2022-12-28T21:16:06.259Z,93.80
2022-12-28T21:18:33.196Z,93.90
2022-12-28T21:21:00.330Z,94.20
2022-12-28T21:23:29.022Z,94.20
2022-12-28T21:26:03.727Z,94.40
2022-12-28T21:28:30.714Z,94.60
2022-12-28T21:30:58.205Z,94.80
2022-12-28T21:33:25.005Z,95.10
2022-12-28T21:36:01.992Z,95.30
2022-12-28T21:38:30.937Z,95.40
2022-12-28T21:41:03.025Z,95.60
2022-12-28T21:43:30.560Z,96.00
2022-12-28T21:46:15.344Z,96.00
2022-12-28T21:48:42.668Z,96.00
2022-12-28T21:51:35.481Z,96.30
2022-12-28T21:54:07.803Z,96.50
2022-12-28T21:56:35.590Z,96.70
2022-12-28T21:59:03.143Z,96.80
2022-12-28T22:01:48.681Z,96.80
2022-12-28T22:04:37.157Z,96.90
2022-12-28T22:07:05.283Z,97.20
2022-12-28T22:09:52.539Z,97.30
2022-12-28T22:12:35.044Z,97.20
2022-12-28T22:15:25.218Z,97.30
2022-12-28T22:17:54.588Z,97.40
2022-12-28T22:20:22.239Z,97.50
2022-12-28T22:22:49.047Z,97.50
2022-12-28T22:25:16.000Z,97.70
2022-12-28T22:27:42.970Z,97.70
2022-12-28T22:30:10.536Z,97.90
2022-12-28T22:32:37.326Z,98.00
2022-12-28T22:35:04.527Z,98.30
2022-12-28T22:37:33.460Z,98.70
2022-12-28T22:40:00.423Z,98.80
2022-12-28T22:42:27.768Z,99.30
2022-12-28T22:44:55.223Z,99.50
2022-12-28T22:47:22.249Z,99.50
2022-12-28T22:49:49.059Z,99.60
2022-12-28T22:52:15.800Z,99.90
2022-12-28T22:54:46.600Z,99.90
2022-12-28T22:57:14.146Z,99.90
2022-12-28T22:59:40.971Z,99.90
2022-12-28T23:02:07.902Z,99.90
2022-12-28T23:04:34.903Z,99.90
2022-12-28T23:07:03.968Z,99.90
2022-12-28T23:09:31.523Z,99.90
2022-12-28T23:11:59.022Z,99.90
2022-12-28T23:14:44.705Z,99.90
2022-12-28T23:17:13.992Z,99.90
2022-12-28T23:20:01.129Z,99.90
2022-12-28T23:22:49.250Z,99.90
2022-12-28T23:25:37.457Z,99.90
2022-12-28T23:28:07.786Z,99.90
2022-12-28T23:30:37.190Z,99.90
2022-12-28T23:33:07.263Z,99.90
2022-12-28T23:35:34.059Z,99.90
2022-12-28T23:38:00.842Z,99.90
2022-12-28T23:40:28.047Z,99.90
2022-12-28T23:42:54.980Z,99.90
2022-12-28T23:45:22.381Z,99.90
2022-12-28T23:47:51.720Z,99.90
2022-12-28T23:50:19.416Z,99.90
2022-12-28T23:52:46.247Z,99.90
2022-12-28T23:55:13.111Z,99.90
2022-12-28T23:57:39.909Z,99.90
